Time;durP1;ratioP1;P1;durP2;ratioP2;P2;SDS_P1;SDS_P2;PMS_P1;PMS_P2;Temp;Humidity;BMP_temperature;BMP_pressure;BME280_temperature;BME280_humidity;BME280_pressure;Samples;Min_cycle;Max_cycle;Signal;HPM_P1;HPM_P2
2024/02/28 00:01:00;;;;;;;30.03;17.70;;;8.70;74.10;;;10.43;54.71;97584.94;5032408;28;20069;-59
2024/02/28 00:03:27;;;;;;;22.87;13.93;;;8.60;74.00;;;10.35;54.71;97578.72;5014886;28;20041;-60
2024/02/28 00:05:55;;;;;;;21.23;13.03;;;8.50;74.40;;;10.29;54.63;97582.84;5032453;28;20411;-60
2024/02/28 00:08:23;;;;;;;19.37;12.30;;;8.40;74.80;;;10.21;54.47;97577.50;5031884;28;20053;-60
2024/02/28 00:10:50;;;;;;;18.20;12.07;;;8.30;75.10;;;10.13;54.64;97574.81;5032277;28;20049;-60
2024/02/28 00:13:20;;;;;;;18.63;11.67;;;8.20;75.40;;;10.03;54.97;97577.59;5032026;28;20045;-61
2024/02/28 00:15:47;;;;;;;20.00;12.23;;;8.00;76.20;;;9.94;55.05;97582.03;5032266;28;20045;-60
2024/02/28 00:18:16;;;;;;;22.50;13.83;;;7.90;76.60;;;9.82;55.29;97584.13;4998042;28;20521;-61
2024/02/28 00:20:46;;;;;;;20.30;13.73;;;7.80;76.90;;;9.76;55.26;97587.41;5032195;28;20057;-60
2024/02/28 00:23:14;;;;;;;20.63;12.63;;;7.80;77.50;;;9.67;55.63;97588.34;5031937;28;20392;-60
2024/02/28 00:25:42;;;;;;;30.00;17.13;;;7.70;77.70;;;9.59;55.87;97591.78;5014650;28;20056;-61
2024/02/28 00:28:09;;;;;;;38.67;20.17;;;7.60;78.20;;;9.53;55.93;97596.91;5031328;28;20046;-61
2024/02/28 00:30:37;;;;;;;35.63;20.20;;;7.50;78.70;;;9.48;55.79;97596.53;5031618;28;20041;-60
2024/02/28 00:33:05;;;;;;;38.43;20.30;;;7.50;78.90;;;9.35;56.15;97597.78;5030767;28;20046;-60
2024/02/28 00:35:34;;;;;;;58.10;28.53;;;7.30;79.40;;;9.31;56.15;97600.91;5031617;28;20049;-60
2024/02/28 00:38:02;;;;;;;35.33;19.73;;;7.30;79.60;;;9.27;56.28;97595.91;5030273;28;20053;-60
2024/02/28 00:40:29;;;;;;;34.00;19.20;;;7.30;79.30;;;9.22;56.36;97600.81;5031484;28;20418;-61
2024/02/28 00:42:58;;;;;;;33.47;17.00;;;7.30;79.70;;;9.14;56.55;97599.94;5031462;28;20046;-60
2024/02/28 00:45:25;;;;;;;30.63;15.20;;;7.20;80.00;;;9.05;57.07;97607.84;5031491;28;20037;-61
2024/02/28 00:47:54;;;;;;;55.20;24.67;;;7.10;80.50;;;9.05;56.98;97607.84;5031141;28;20048;-60
2024/02/28 00:50:22;;;;;;;47.60;22.53;;;7.10;80.70;;;9.05;56.88;97610.50;5030689;28;20060;-60
2024/02/28 00:52:50;;;;;;;63.27;29.83;;;7.10;80.60;;;9.05;56.86;97614.94;5030879;28;20053;-60
2024/02/28 00:55:18;;;;;;;42.57;20.00;;;7.10;80.60;;;9.03;56.63;97604.50;5031440;28;20041;-60
2024/02/28 00:57:46;;;;;;;24.43;14.03;;;7.10;80.60;;;9.03;56.83;97607.16;5030925;28;20426;-61
2024/02/28 01:00:14;;;;;;;22.73;13.77;;;7.10;80.40;;;9.03;56.62;97608.97;5031302;28;20056;-60
2024/02/28 01:02:42;;;;;;;19.87;11.97;;;7.10;80.30;;;9.00;56.90;97615.41;5031264;28;20133;-60
2024/02/28 01:05:09;;;;;;;19.47;11.73;;;7.10;80.00;;;8.94;56.85;97613.38;5031494;28;20068;-60
2024/02/28 01:07:37;;;;;;;20.30;12.83;;;7.00;80.30;;;8.86;56.81;97608.00;5030391;28;20483;-61
2024/02/28 01:10:07;;;;;;;21.37;13.77;;;6.90;81.00;;;8.80;57.31;97614.75;5031101;28;20418;-60
2024/02/28 01:12:34;;;;;;;21.93;12.57;;;6.80;81.70;;;8.76;57.28;97612.53;5013770;28;20042;-61
2024/02/28 01:15:03;;;;;;;23.67;13.03;;;6.70;82.00;;;8.75;57.29;97617.00;5031148;28;20046;-61
2024/02/28 01:17:31;;;;;;;19.30;12.50;;;6.80;81.60;;;8.69;57.28;97614.94;5022709;28;20045;-61
2024/02/28 01:19:58;;;;;;;20.03;11.63;;;6.70;82.20;;;8.71;57.51;97617.47;5031133;28;20049;-61
2024/02/28 01:22:26;;;;;;;20.77;13.37;;;6.70;82.20;;;8.70;57.42;97619.25;5030759;28;20049;-61
2024/02/28 01:24:53;;;;;;;20.10;12.67;;;6.70;82.00;;;8.66;57.47;97621.38;5031068;28;20052;-61
2024/02/28 01:27:21;;;;;;;19.97;12.10;;;6.60;81.80;;;8.57;57.79;97619.63;5028889;28;20045;-60
2024/02/28 01:29:49;;;;;;;17.73;11.37;;;6.60;82.60;;;8.59;57.79;97615.00;5012880;28;20049;-60
2024/02/28 01:32:16;;;;;;;22.33;13.17;;;6.60;82.80;;;8.59;57.86;97624.81;5031016;28;20049;-61
2024/02/28 01:34:44;;;;;;;22.20;13.83;;;6.60;82.70;;;8.56;57.86;97617.13;5030918;28;20056;-61
2024/02/28 01:37:12;;;;;;;20.50;13.00;;;6.60;83.00;;;8.57;58.15;97606.38;5031014;28;20057;-61
2024/02/28 01:39:40;;;;;;;21.57;13.70;;;6.60;82.40;;;8.60;57.98;97618.50;5030546;28;20052;-61
2024/02/28 01:42:09;;;;;;;22.17;14.37;;;6.70;82.90;;;8.61;58.00;97605.09;5030893;28;20045;-61
2024/02/28 01:44:47;;;;;;;25.33;14.10;;;6.70;82.30;;;8.63;58.08;97611.06;5031177;28;20060;-61
2024/02/28 01:47:15;;;;;;;21.13;11.90;;;6.70;82.90;;;8.68;58.08;97618.56;5030811;28;20052;-61
2024/02/28 01:49:46;;;;;;;20.27;11.50;;;6.80;82.40;;;8.71;57.88;97618.28;5012597;28;20077;-61
2024/02/28 01:52:14;;;;;;;19.03;11.50;;;6.80;82.10;;;8.75;58.08;97619.66;5013360;28;20049;-60
2024/02/28 01:54:42;;;;;;;29.23;15.63;;;6.90;81.70;;;8.77;58.08;97612.38;5012797;28;20053;-61
2024/02/28 01:57:10;;;;;;;21.57;14.17;;;6.90;81.60;;;8.76;57.82;97618.69;5013278;28;20049;-60
2024/02/28 01:59:38;;;;;;;21.37;12.37;;;6.90;81.50;;;8.78;58.00;97621.16;5030065;28;20049;-60
2024/02/28 02:02:06;;;;;;;18.07;12.10;;;6.90;81.50;;;8.79;57.89;97620.19;5030704;28;20045;-61
2024/02/28 02:04:34;;;;;;;22.10;12.90;;;6.90;81.60;;;8.80;57.94;97627.16;5034398;28;20041;-60
2024/02/28 02:07:01;;;;;;;27.37;13.53;;;6.90;81.40;;;8.82;57.82;97626.03;5034618;28;20494;-61
2024/02/28 02:09:29;;;;;;;22.60;14.10;;;6.90;81.60;;;8.84;57.73;97632.03;5016056;28;20057;-60
2024/02/28 02:11:57;;;;;;;17.73;11.07;;;6.90;81.50;;;8.89;57.84;97639.53;5034387;28;20046;-61
2024/02/28 02:14:24;;;;;;;21.13;12.53;;;7.00;81.20;;;8.91;57.80;97632.25;5034437;28;20399;-60
2024/02/28 02:16:52;;;;;;;17.33;11.30;;;7.00;81.10;;;8.91;57.74;97637.56;5034499;28;20049;-61
2024/02/28 02:19:20;;;;;;;21.47;12.60;;;7.00;80.80;;;8.94;57.77;97633.78;5016455;28;20049;-61
2024/02/28 02:21:52;;;;;;;22.37;12.93;;;7.00;80.70;;;8.95;57.67;97644.22;5034310;28;20042;-61
2024/02/28 02:24:20;;;;;;;19.00;11.13;;;7.00;80.20;;;8.96;57.54;97651.22;5016771;28;20042;-61
2024/02/28 02:26:50;;;;;;;22.77;13.53;;;7.10;80.60;;;8.97;57.53;97658.19;5034333;28;20045;-61
2024/02/28 02:29:18;;;;;;;19.13;12.43;;;7.10;80.30;;;8.89;57.70;97659.94;5033778;28;20053;-61
2024/02/28 02:31:45;;;;;;;20.07;12.97;;;7.00;81.00;;;8.81;57.79;97666.84;5033997;28;20053;-60
2024/02/28 02:34:13;;;;;;;20.43;13.70;;;6.80;81.60;;;8.76;57.91;97663.81;5033158;28;20060;-61
2024/02/28 02:36:41;;;;;;;19.23;12.70;;;6.80;82.00;;;8.75;57.90;97666.59;5034202;28;20050;-64
2024/02/28 02:39:08;;;;;;;21.27;12.90;;;6.80;82.20;;;8.72;57.99;97673.03;5033639;28;20426;-60
2024/02/28 02:41:36;;;;;;;19.80;12.10;;;6.80;82.20;;;8.71;58.22;97676.69;5033992;28;20049;-60
2024/02/28 02:44:04;;;;;;;20.97;12.90;;;6.80;81.50;;;8.67;58.49;97677.97;5040494;28;20045;-60
2024/02/28 02:46:31;;;;;;;19.40;13.67;;;6.70;81.90;;;8.60;58.53;97683.00;5033527;28;20037;-60
2024/02/28 02:48:59;;;;;;;24.33;13.00;;;6.70;83.40;;;8.61;58.55;97686.53;5033395;28;20045;-61
2024/02/28 02:51:26;;;;;;;22.13;13.20;;;6.70;83.50;;;8.64;58.42;97691.53;5033757;28;20033;-61
2024/02/28 02:53:54;;;;;;;18.87;12.83;;;6.70;82.90;;;8.57;58.52;97687.78;5033463;28;20076;-61
2024/02/28 02:56:22;;;;;;;18.37;12.30;;;6.70;83.10;;;8.52;58.76;97695.38;5033656;28;20049;-61
2024/02/28 02:58:49;;;;;;;21.07;12.33;;;6.70;83.30;;;8.47;58.74;97699.28;5033199;28;20529;-60
2024/02/28 03:01:17;;;;;;;24.63;15.10;;;6.60;83.00;;;8.44;58.76;97701.41;5015395;28;20434;-61
2024/02/28 03:03:45;;;;;;;19.93;12.30;;;6.60;82.90;;;8.37;59.08;97693.13;5015234;28;20053;-61
2024/02/28 03:06:12;;;;;;;20.63;13.03;;;6.50;83.70;;;8.41;59.01;97704.31;5032817;28;20049;-61
2024/02/28 03:08:40;;;;;;;21.10;13.87;;;6.60;84.00;;;8.39;59.23;97699.13;5033031;28;20414;-61
2024/02/28 03:11:08;;;;;;;21.07;13.17;;;6.60;84.30;;;8.26;59.52;97701.31;5033137;28;20049;-61
2024/02/28 03:13:36;;;;;;;21.40;13.57;;;6.50;84.50;;;8.20;60.07;97704.50;5033194;28;20053;-60
2024/02/28 03:16:04;;;;;;;20.43;13.70;;;6.40;85.10;;;8.26;59.68;97706.63;5015631;28;20054;-61
2024/02/28 03:18:32;;;;;;;25.10;14.63;;;6.50;85.10;;;8.28;59.42;97700.16;5015206;28;20048;-60
2024/02/28 03:21:00;;;;;;;22.17;13.83;;;6.40;85.10;;;8.24;59.80;97712.06;5033339;28;20434;-61
2024/02/28 03:23:28;;;;;;;22.10;13.40;;;6.40;85.20;;;8.21;59.81;97714.97;5033007;28;20046;-61
2024/02/28 03:25:55;;;;;;;22.63;14.47;;;6.40;85.70;;;8.18;59.95;97712.63;5033085;28;20046;-60
2024/02/28 03:28:23;;;;;;;23.77;15.57;;;6.30;85.80;;;8.18;59.98;97714.44;5032784;28;20044;-61
2024/02/28 03:30:50;;;;;;;22.77;14.07;;;6.30;85.60;;;8.17;59.77;97720.72;5015497;28;20499;-60
2024/02/28 03:33:18;;;;;;;18.57;13.13;;;6.30;85.80;;;8.12;60.13;97725.63;5014657;28;20049;-61
2024/02/28 03:35:46;;;;;;;22.60;13.57;;;6.30;85.70;;;8.20;59.75;97729.25;5032919;28;20041;-61
2024/02/28 03:38:13;;;;;;;26.67;15.90;;;6.40;85.40;;;8.20;59.94;97728.38;5032235;28;20053;-61
2024/02/28 03:40:41;;;;;;;22.23;13.93;;;6.40;85.20;;;8.20;59.86;97729.25;5032978;28;20052;-61
2024/02/28 03:43:09;;;;;;;23.40;14.97;;;6.40;85.30;;;8.27;59.73;97730.31;5032908;28;20041;-61
2024/02/28 03:45:38;;;;;;;28.30;15.77;;;6.50;85.20;;;8.22;59.60;97737.03;5033015;28;20042;-61
2024/02/28 03:48:06;;;;;;;21.60;14.23;;;6.40;84.70;;;8.26;59.62;97749.06;5014278;28;20053;-60
2024/02/28 03:50:34;;;;;;;18.90;12.73;;;6.40;85.10;;;8.20;59.69;97746.94;5032518;28;20046;-60
2024/02/28 03:53:02;;;;;;;24.67;15.67;;;6.30;85.10;;;8.25;59.61;97756.16;5014971;28;20108;-61
2024/02/28 03:55:30;;;;;;;23.03;13.67;;;6.40;84.90;;;8.27;59.70;97762.13;5039584;28;20053;-61
2024/02/28 03:57:58;;;;;;;20.07;13.87;;;6.40;85.00;;;8.23;59.86;97763.41;5031899;28;20049;-61
2024/02/28 04:00:26;;;;;;;26.97;16.07;;;6.30;84.80;;;8.16;59.92;97759.69;5032508;28;20079;-60
2024/02/28 04:02:53;;;;;;;22.03;14.57;;;6.30;84.80;;;8.17;59.75;97766.66;5014796;28;20411;-60
2024/02/28 04:05:21;;;;;;;24.30;13.90;;;6.20;85.20;;;8.18;59.92;97765.69;5031872;28;20045;-61
2024/02/28 04:07:49;;;;;;;22.63;15.07;;;6.20;85.30;;;8.19;59.52;97777.94;5032175;28;20534;-60
2024/02/28 04:10:17;;;;;;;26.33;16.43;;;6.30;85.60;;;8.20;59.53;97770.81;5032233;28;20048;-61
2024/02/28 04:12:44;;;;;;;20.50;14.13;;;6.30;84.60;;;8.23;59.46;97776.69;5032390;28;20037;-61
2024/02/28 04:15:13;;;;;;;25.83;14.43;;;6.40;84.60;;;8.25;59.53;97781.84;5032875;28;20514;-61
2024/02/28 04:17:42;;;;;;;27.63;15.27;;;6.50;84.50;;;8.19;59.60;97779.75;5031653;28;20491;-61
2024/02/28 04:20:11;;;;;;;23.17;15.83;;;6.40;84.20;;;8.20;59.31;97779.63;5032391;28;20107;-61
2024/02/28 04:22:39;;;;;;;27.73;16.67;;;6.30;84.50;;;8.22;59.32;97775.03;5032105;28;20490;-61
2024/02/28 04:25:09;;;;;;;25.17;15.33;;;6.40;84.20;;;8.19;59.43;97777.94;5031322;28;20046;-60
2024/02/28 04:27:37;;;;;;;23.90;14.40;;;6.30;84.40;;;8.17;59.43;97776.44;5030696;28;20090;-61
2024/02/28 04:30:06;;;;;;;27.17;16.90;;;6.30;84.70;;;8.16;59.45;97772.94;5030568;28;20041;-61
2024/02/28 04:32:35;;;;;;;27.10;16.03;;;6.20;84.90;;;8.19;59.50;97772.63;5031715;28;20204;-61
2024/02/28 04:35:03;;;;;;;24.93;16.50;;;6.30;84.70;;;8.22;59.69;97774.16;5031800;28;20053;-60
2024/02/28 04:37:31;;;;;;;26.13;16.90;;;6.40;84.50;;;8.25;59.49;97785.31;5031531;28;20442;-61
2024/02/28 04:39:58;;;;;;;30.17;16.53;;;6.40;84.70;;;8.29;59.47;97791.19;5014292;28;20415;-60
2024/02/28 04:42:26;;;;;;;25.87;17.20;;;6.50;84.20;;;8.25;59.51;97789.81;5031537;28;20517;-61
2024/02/28 04:44:54;;;;;;;27.67;18.10;;;6.40;84.10;;;8.21;59.57;97794.53;5031486;28;20471;-60
2024/02/28 04:47:22;;;;;;;29.63;18.17;;;6.40;84.70;;;8.20;59.50;97795.53;5031181;28;20037;-61
2024/02/28 04:50:00;;;;;;;30.30;18.07;;;6.30;84.50;;;8.14;59.66;97796.09;5024583;28;20038;-61
2024/02/28 04:52:27;;;;;;;29.90;17.27;;;6.20;84.80;;;8.10;59.71;97794.69;5031607;28;20418;-61
2024/02/28 04:54:55;;;;;;;30.17;18.03;;;6.20;85.40;;;8.16;59.75;97802.13;5031382;28;20060;-61
2024/02/28 04:57:22;;;;;;;30.10;19.00;;;6.30;85.50;;;8.21;59.82;97802.50;5030367;28;20049;-61
2024/02/28 04:59:50;;;;;;;30.17;17.40;;;6.30;84.70;;;8.19;59.75;97807.13;5013463;28;20052;-60
2024/02/28 05:02:18;;;;;;;31.47;21.27;;;6.30;84.60;;;8.13;59.65;97814.81;5031311;28;20037;-60
2024/02/28 05:04:46;;;;;;;29.20;18.43;;;6.20;85.00;;;8.05;60.14;97807.56;5031131;28;20049;-60
2024/02/28 05:07:13;;;;;;;28.10;16.97;;;6.10;85.80;;;8.02;60.11;97807.84;5031096;28;20053;-61
2024/02/28 05:09:41;;;;;;;28.00;17.90;;;6.10;86.30;;;8.05;59.58;97812.88;5030868;28;20084;-60
2024/02/28 05:12:09;;;;;;;31.00;17.87;;;6.10;85.10;;;7.88;60.28;97804.63;5031276;28;20483;-60
2024/02/28 05:14:36;;;;;;;26.70;16.53;;;6.00;85.60;;;7.89;60.04;97803.66;5031124;28;20037;-60
2024/02/28 05:17:04;;;;;;;28.17;17.00;;;6.00;86.40;;;7.80;60.55;97808.97;5031257;28;20049;-60
2024/02/28 05:19:32;;;;;;;27.80;17.00;;;5.90;85.70;;;7.77;60.42;97812.72;5030416;28;20048;-61
2024/02/28 05:22:01;;;;;;;28.03;17.53;;;5.90;86.50;;;7.80;60.27;97807.16;5031112;28;20525;-60
2024/02/28 05:24:29;;;;;;;24.17;16.50;;;5.90;86.80;;;7.73;60.52;97799.91;5013546;28;20420;-60
2024/02/28 05:26:56;;;;;;;27.37;16.27;;;5.90;86.50;;;7.81;60.37;97807.97;5023268;28;20046;-60
2024/02/28 05:29:26;;;;;;;29.70;17.57;;;5.90;86.90;;;7.80;60.40;97804.50;5030622;28;20045;-60
2024/02/28 05:31:53;;;;;;;29.37;18.23;;;6.00;86.70;;;7.83;60.48;97812.19;5030966;28;20045;-60
2024/02/28 05:34:22;;;;;;;33.57;20.07;;;6.00;86.30;;;7.77;60.37;97812.72;5030834;28;20050;-60
2024/02/28 05:36:50;;;;;;;46.10;33.47;;;5.90;86.60;;;7.83;60.46;97816.63;5030501;28;20053;-60
2024/02/28 05:39:18;;;;;;;27.57;18.50;;;6.00;86.70;;;7.71;60.72;97815.94;5030296;28;20041;-60
2024/02/28 05:41:46;;;;;;;28.23;17.80;;;5.90;87.20;;;7.51;61.01;97814.25;5030951;28;20056;-61
2024/02/28 05:44:13;;;;;;;27.97;17.30;;;5.70;87.20;;;7.38;61.92;97820.63;5030954;28;20257;-61
2024/02/28 05:46:41;;;;;;;28.83;19.47;;;5.60;87.70;;;7.40;61.74;97825.81;5030220;28;20156;-61
2024/02/28 05:49:08;;;;;;;28.77;18.40;;;5.60;89.00;;;7.49;61.13;97832.94;5030530;28;20072;-61
2024/02/28 05:51:36;;;;;;;28.63;17.33;;;5.70;89.10;;;7.42;61.81;97835.28;5031171;28;20041;-61
2024/02/28 05:54:04;;;;;;;28.30;17.33;;;5.60;87.80;;;7.52;61.12;97830.00;5030847;28;20064;-61
2024/02/28 05:56:31;;;;;;;34.07;18.67;;;5.70;88.30;;;7.60;61.07;97834.59;5030725;28;20045;-62
2024/02/28 05:58:59;;;;;;;30.00;18.70;;;5.80;87.90;;;7.67;61.16;97833.09;5012283;28;20053;-61
2024/02/28 06:01:27;;;;;;;32.80;19.13;;;5.90;87.20;;;7.66;60.97;97839.38;5030513;28;20502;-61
2024/02/28 06:03:54;;;;;;;31.10;18.63;;;5.90;86.70;;;7.71;60.72;97838.97;5030399;28;20045;-61
2024/02/28 06:06:22;;;;;;;33.33;18.73;;;5.90;87.30;;;7.53;60.97;97839.63;5030609;28;20049;-61
2024/02/28 06:08:50;;;;;;;28.00;18.27;;;5.80;86.30;;;7.60;60.99;97840.75;5030048;28;20056;-61
2024/02/28 06:11:17;;;;;;;29.93;18.57;;;5.80;87.40;;;7.59;61.08;97838.25;5030567;28;20050;-61
2024/02/28 06:13:45;;;;;;;28.27;18.80;;;5.80;86.90;;;7.51;60.74;97841.59;5012340;28;20053;-61
2024/02/28 06:16:17;;;;;;;30.03;18.87;;;5.70;87.50;;;7.51;61.18;97848.69;5030591;28;20033;-61
2024/02/28 06:18:45;;;;;;;29.13;18.60;;;5.70;88.00;;;7.55;61.31;97858.06;5029582;28;20056;-61
2024/02/28 06:21:14;;;;;;;31.60;19.00;;;5.70;87.50;;;7.50;61.22;97861.09;5030434;28;20042;-61
2024/02/28 06:23:42;;;;;;;29.63;18.77;;;5.70;88.10;;;7.59;61.10;97856.78;5030401;28;20120;-61
2024/02/28 06:26:16;;;;;;;47.30;19.87;;;5.80;87.70;;;7.63;60.95;97866.13;5030214;28;20048;-60
2024/02/28 06:28:45;;;;;;;;;;;5.90;87.10;;;7.56;60.71;97859.72;5030537;28;20422;-60
2024/02/28 06:31:18;;;;;;;29.53;18.40;;;5.70;87.00;;;7.58;60.67;97874.50;5030853;28;19921;-60
2024/02/28 06:33:45;;;;;;;32.30;20.63;;;5.70;87.90;;;7.58;60.67;97876.31;5030389;28;20057;-60
2024/02/28 06:36:14;;;;;;;29.87;18.93;;;5.60;88.10;;;7.53;61.35;97883.84;5030442;28;20041;-60
2024/02/28 06:38:42;;;;;;;30.17;19.00;;;5.60;88.20;;;7.49;61.02;97889.41;5029378;28;20049;-60
2024/02/28 06:41:09;;;;;;;31.27;17.73;;;5.60;88.90;;;7.54;60.93;97889.00;5030138;28;20041;-61
2024/02/28 06:43:37;;;;;;;32.53;19.47;;;5.70;89.20;;;7.61;61.10;97887.47;5029663;28;20045;-61
2024/02/28 06:46:04;;;;;;;33.27;18.93;;;5.80;88.10;;;7.71;61.21;97894.59;5030236;28;20048;-61
2024/02/28 06:48:32;;;;;;;29.53;17.97;;;5.90;87.20;;;7.75;60.68;97894.19;5030009;28;20038;-63
2024/02/28 06:51:00;;;;;;;30.87;17.63;;;6.00;86.60;;;7.80;60.81;97894.63;5033605;28;20034;-64
2024/02/28 06:53:28;;;;;;;30.80;19.33;;;6.00;86.70;;;7.81;60.60;97893.66;5016253;28;20037;-64
2024/02/28 06:55:56;;;;;;;30.10;17.73;;;6.00;86.10;;;7.81;60.64;97895.44;5033625;28;20518;-62
2024/02/28 06:58:25;;;;;;;28.07;17.73;;;5.90;86.60;;;7.86;60.54;97904.66;5032282;28;20427;-64
2024/02/28 07:00:52;;;;;;;31.70;18.67;;;6.00;86.30;;;7.86;60.21;97902.03;5033616;28;20060;-64
2024/02/28 07:03:22;;;;;;;32.23;18.67;;;6.00;85.40;;;7.89;60.45;97898.28;5016458;28;20050;-64
2024/02/28 07:05:50;;;;;;;30.80;18.83;;;6.10;86.10;;;7.89;60.28;97903.56;5033273;28;20061;-63
2024/02/28 07:08:18;;;;;;;27.83;18.30;;;6.10;85.80;;;7.94;60.36;97903.97;5033280;28;20442;-62
2024/02/28 07:10:49;;;;;;;32.20;19.20;;;6.10;86.20;;;7.94;60.48;97913.75;5033289;28;20045;-63
2024/02/28 07:13:16;;;;;;;30.87;17.33;;;6.10;85.50;;;7.96;60.04;97919.75;5033103;28;20068;-63
2024/02/28 07:15:44;;;;;;;29.73;18.03;;;6.10;85.20;;;7.98;60.50;97915.97;5033153;28;20067;-62
2024/02/28 07:18:12;;;;;;;31.93;18.73;;;6.10;85.60;;;7.89;60.56;97920.31;5032889;28;20042;-62
2024/02/28 07:20:39;;;;;;;29.03;17.90;;;6.00;85.30;;;7.92;60.57;97921.84;5033321;28;20449;-63
2024/02/28 07:23:07;;;;;;;30.63;18.43;;;6.00;85.70;;;7.97;60.24;97922.28;5021059;28;20053;-64
2024/02/28 07:25:35;;;;;;;33.77;18.90;;;6.10;85.70;;;8.00;60.17;97931.75;5029078;28;20037;-63
2024/02/28 07:28:03;;;;;;;28.20;17.03;;;6.10;85.20;;;8.03;60.02;97936.78;5032287;28;20045;-65
2024/02/28 07:30:31;;;;;;;28.63;16.93;;;6.20;84.70;;;8.02;60.09;97941.25;5012076;28;20410;-64
2024/02/28 07:32:58;;;;;;;27.40;17.40;;;6.20;84.50;;;7.99;60.05;97952.13;5032388;28;20052;-64
2024/02/28 07:35:26;;;;;;;27.00;16.80;;;6.10;84.60;;;7.96;60.13;97956.88;5031089;28;20398;-63
2024/02/28 07:37:53;;;;;;;27.03;16.43;;;6.00;85.20;;;7.98;60.14;97965.53;5013844;28;20064;-63
2024/02/28 07:40:21;;;;;;;31.10;18.27;;;6.10;84.70;;;7.94;60.11;97959.66;5032830;28;20045;-63
2024/02/28 07:42:49;;;;;;;26.17;17.87;;;6.00;85.10;;;7.98;59.98;97961.06;5032891;28;20049;-63
2024/02/28 07:45:17;;;;;;;29.67;17.70;;;6.10;85.30;;;8.00;59.96;97968.88;5015220;28;20049;-62
2024/02/28 07:47:44;;;;;;;29.23;18.80;;;6.10;84.80;;;8.05;60.00;97972.78;5032203;28;20052;-63
2024/02/28 07:50:12;;;;;;;28.30;18.70;;;6.20;84.70;;;8.07;60.12;97977.97;5014825;28;20033;-63
2024/02/28 07:52:41;;;;;;;29.90;18.83;;;6.20;83.80;;;8.05;59.82;97980.75;5015410;28;20060;-63
2024/02/28 07:55:08;;;;;;;32.43;18.83;;;6.20;84.90;;;8.01;60.19;97974.03;5032623;28;20502;-62
2024/02/28 07:57:36;;;;;;;34.60;19.93;;;6.10;85.10;;;8.03;60.21;97982.69;5032180;28;20049;-63
2024/02/28 08:00:05;;;;;;;29.97;17.90;;;6.20;85.60;;;8.05;59.98;97978.09;5031993;28;20045;-64
2024/02/28 08:02:39;;;;;;;29.93;18.37;;;6.20;85.60;;;8.04;60.04;97980.88;5033253;28;20056;-61
2024/02/28 08:05:07;;;;;;;29.80;17.80;;;6.20;85.40;;;8.07;60.04;97984.09;5032332;28;20045;-61
2024/02/28 08:07:35;;;;;;;28.93;18.27;;;6.20;85.30;;;8.11;60.12;97983.84;5032103;28;20041;-61
2024/02/28 08:10:06;;;;;;;33.33;19.43;;;6.30;86.10;;;8.17;60.20;97985.94;5032379;28;20363;-61
2024/02/28 08:12:34;;;;;;;27.00;17.47;;;6.40;84.80;;;8.19;60.01;97982.16;5032588;28;20065;-60
2024/02/28 08:15:03;;;;;;;32.40;17.90;;;6.40;83.90;;;8.21;60.18;97988.16;5032230;28;20041;-60
2024/02/28 08:17:31;;;;;;;29.17;18.00;;;6.40;83.90;;;8.25;60.00;97994.88;5014356;28;20041;-60
2024/02/28 08:19:58;;;;;;;31.03;18.73;;;6.40;84.20;;;8.31;59.97;97993.47;5031986;28;20057;-60
2024/02/28 08:22:26;;;;;;;26.93;16.13;;;6.50;84.40;;;8.33;59.96;97998.66;5032199;28;20517;-59
2024/02/28 08:24:54;;;;;;;29.77;18.50;;;6.50;83.90;;;8.35;59.95;97996.69;5031956;28;20422;-60
2024/02/28 08:27:23;;;;;;;34.77;19.20;;;6.50;83.70;;;8.34;59.80;97993.22;5031776;28;20509;-60
2024/02/28 08:29:51;;;;;;;31.27;18.37;;;6.50;84.00;;;8.39;59.88;97996.28;5031910;28;20112;-60
2024/02/28 08:32:18;;;;;;;29.83;19.50;;;6.50;84.00;;;8.39;59.67;97998.09;5031998;28;20037;-59
2024/02/28 08:34:46;;;;;;;28.50;17.00;;;6.50;84.40;;;8.42;59.72;97997.88;5031554;28;20045;-59
2024/02/28 08:37:14;;;;;;;29.33;17.40;;;6.60;84.00;;;8.45;59.68;97997.56;5022761;28;20060;-60
2024/02/28 08:39:42;;;;;;;28.93;18.70;;;6.60;83.50;;;8.40;59.62;98007.75;5012535;28;20435;-60
2024/02/28 08:42:09;;;;;;;26.23;18.27;;;6.50;83.20;;;8.36;59.70;98001.88;5020471;28;20053;-61
2024/02/28 08:44:37;;;;;;;35.83;22.13;;;6.50;83.50;;;8.32;59.75;98000.47;5026472;28;20052;-60
2024/02/28 08:47:07;;;;;;;29.57;19.27;;;6.40;83.80;;;8.38;59.74;98004.41;5026623;28;20033;-60
2024/02/28 08:49:35;;;;;;;31.83;20.00;;;6.50;84.50;;;8.41;59.63;97999.69;5026440;28;20052;-61
2024/02/28 08:52:03;;;;;;;30.70;19.10;;;6.60;84.00;;;8.47;59.59;98000.91;5024986;28;20387;-60
2024/02/28 08:54:31;;;;;;;31.23;18.57;;;6.70;83.60;;;8.53;59.59;98007.47;5022459;28;20053;-61
2024/02/28 08:56:59;;;;;;;30.93;19.80;;;6.70;83.60;;;8.55;59.55;98005.53;5026161;28;20494;-61
2024/02/28 08:59:30;;;;;;;27.43;17.70;;;6.70;82.80;;;8.61;59.71;98005.00;5026252;28;20056;-61
2024/02/28 09:01:58;;;;;;;33.67;17.90;;;6.80;83.20;;;8.63;59.61;98021.63;5025575;28;20049;-62
2024/02/28 09:04:26;;;;;;;30.77;18.73;;;6.80;82.20;;;8.62;59.43;98018.09;5023738;28;20080;-61
2024/02/28 09:06:54;;;;;;;30.27;18.63;;;6.80;82.90;;;8.62;59.50;98019.91;5024405;28;20041;-61
2024/02/28 09:09:21;;;;;;;29.63;18.83;;;6.80;83.20;;;8.67;59.42;98013.22;5024737;28;20418;-60
2024/02/28 09:11:49;;;;;;;29.73;17.23;;;6.80;82.30;;;8.69;59.48;98017.56;5025729;28;20619;-61
2024/02/28 09:14:17;;;;;;;35.13;19.30;;;6.80;83.00;;;8.66;59.34;98023.97;5024838;28;20418;-61
2024/02/28 09:16:45;;;;;;;29.73;18.60;;;6.80;82.40;;;8.64;59.32;98023.28;5026269;28;20338;-61
2024/02/28 09:19:12;;;;;;;33.80;19.63;;;6.80;81.90;;;8.64;59.24;98017.97;5024517;28;20603;-61
2024/02/28 09:21:40;;;;;;;33.43;19.03;;;6.70;82.90;;;8.66;59.34;98008.03;5024337;28;20410;-60
2024/02/28 09:24:08;;;;;;;28.20;16.87;;;6.80;82.60;;;8.71;59.08;98020.91;5026208;28;20045;-61
2024/02/28 09:26:39;;;;;;;28.43;17.00;;;6.90;82.10;;;8.74;59.03;98015.31;5025581;28;20517;-60
2024/02/28 09:29:07;;;;;;;29.20;17.40;;;6.90;82.10;;;8.81;59.15;98016.44;5024131;28;20052;-61
2024/02/28 09:31:34;;;;;;;27.80;17.27;;;7.00;81.80;;;8.89;58.89;98011.25;5024562;28;20053;-61
2024/02/28 09:34:07;;;;;;;28.57;18.50;;;7.10;81.70;;;8.97;59.10;98015.84;5025458;28;20509;-60
2024/02/28 09:36:42;;;;;;;26.90;16.70;;;7.20;81.10;;;9.03;58.81;98009.97;5025809;28;20057;-60
2024/02/28 09:39:15;;;;;;;27.27;16.03;;;7.20;80.60;;;9.09;58.77;98012.03;5021968;28;20064;-60
2024/02/28 09:41:43;;;;;;;26.77;16.47;;;7.30;80.60;;;9.15;58.84;98007.97;5019103;28;20053;-60
2024/02/28 09:44:14;;;;;;;25.63;16.17;;;7.40;80.50;;;9.20;58.88;98019.03;5021809;28;20045;-60
2024/02/28 09:46:42;;;;;;;24.93;15.73;;;7.50;79.60;;;9.23;58.57;98016.91;5007723;28;20430;-61
2024/02/28 09:49:10;;;;;;;23.27;15.37;;;7.40;79.10;;;9.25;58.35;98014.13;5005889;28;20522;-62
2024/02/28 09:51:38;;;;;;;24.00;15.53;;;7.50;79.40;;;9.31;58.64;98015.38;5022176;28;20045;-62
2024/02/28 09:54:06;;;;;;;26.97;17.00;;;7.50;79.50;;;9.37;58.55;98015.63;5026412;28;20048;-63
2024/02/28 09:56:35;;;;;;;31.13;17.43;;;7.60;78.90;;;9.42;58.54;98015.19;5029618;28;20045;-61
2024/02/28 09:59:03;;;;;;;33.40;18.50;;;7.70;78.70;;;9.47;58.23;98012.94;5029246;28;20052;-61
2024/02/28 10:01:35;;;;;;;24.77;15.50;;;7.80;77.80;;;9.49;57.99;98024.25;5019813;28;20049;-62
2024/02/28 10:04:03;;;;;;;25.67;16.73;;;7.80;77.90;;;9.51;58.34;98024.94;5020447;28;20052;-61
2024/02/28 10:06:31;;;;;;;22.80;14.83;;;8.00;77.50;;;9.61;58.14;98032.88;5025561;28;20309;-61
2024/02/28 10:08:59;;;;;;;25.70;14.97;;;8.10;77.70;;;9.70;57.83;98036.50;5028749;28;20050;-61
2024/02/28 10:11:26;;;;;;;24.60;13.43;;;8.20;76.50;;;9.66;57.45;98041.28;5010681;28;20041;-61
2024/02/28 10:13:55;;;;;;;25.87;14.40;;;8.10;75.80;;;9.70;57.73;98033.84;5027630;28;20045;-62
2024/02/28 10:16:24;;;;;;;30.97;15.70;;;8.10;76.50;;;9.70;57.49;98032.03;5028767;28;20057;-61
2024/02/28 10:18:52;;;;;;;24.97;15.50;;;8.10;75.60;;;9.69;57.57;98040.97;5010789;28;20045;-60
2024/02/28 10:21:20;;;;;;;27.90;17.30;;;8.00;77.10;;;9.71;57.38;98032.84;5029031;28;20041;-61
2024/02/28 10:23:47;;;;;;;25.27;15.67;;;8.00;77.10;;;9.74;57.33;98032.56;5029736;28;20041;-60